Oak Harbor, WA (98277)

4:06 PM PDT on October 01, 2014 (GMT -0700)
Nutmeg Road, Bayview Estates | Change Station
CLOSE
Current Station
Personal Weather Station
Location: Oak Harbor, WA
Elevation: 57 m
Nearby Weather Stations

Elev 57 m 48.31 °N, 122.59 °W | Updated 4 minutes ago

Mostly Cloudy
Mostly Cloudy
16.6 °C
Feels Like 16.6 °C
N
4.8
Wind Variable Wind from SW
Gusts 12.9 km/h

Today
High -- | Low -- °C
--% Chance of Precip.
Yesterday
High -- | Low -- °C
Precip. -- mm
7:10 AM 6:49 PM
First Quarter, 52% visible
Pressure 1022 hPa
Visibility 16.1 kilometers
Clouds Few 762 m
Mostly Cloudy 1463 m
Mostly Cloudy 1828 m
Mostly Cloudy 6705 m
Dew Point 9 °C
Humidity 64%
Rainfall 0 mm
Snow Depth 0 in , 0 in , 0 in
UV 0.7 out of 12
Pollen 1.30 out of 12
PM2.5 Good
Flu Activity Not available.
METAR KNUW 012256Z 22010KT 10SM FEW025 BKN048 BKN060 BKN220 17/08 A3018 RMK AO2 SLP225 T01670078 $

More Conditions Fewer Conditions

Pressure 1022 hPa
Visibility 16.1 kilometers
Clouds Few 762 m
Mostly Cloudy 1463 m
Mostly Cloudy 1828 m
Mostly Cloudy 6705 m
Dew Point 9 °C
Humidity 64%
Rainfall 0 mm
Snow Depth 0 in , 0 in , 0 in
UV 0.7 out of 12
Pollen 1.30 out of 12
PM2.5 Good
Flu Activity Not available.
METAR KNUW 012256Z 22010KT 10SM FEW025 BKN048 BKN060 BKN220 17/08 A3018 RMK AO2 SLP225 T01670078 $

More Conditions Fewer Conditions

10-Day Weather Forecast

Almanac

Astronomy

Oct. 01, 2014 Rise Set
Actual Time 7:10 AM PDT 6:49 PM PDT
Civil Twilight 6:38 AM PDT 7:20 PM PDT
Nautical Twilight 6:02 AM PDT 7:56 PM PDT
Astronomical Twilight 5:25 AM PDT 8:33 PM PDT
Moon 2:35 PM PDT No Moon Set
Length of Visible Light 12h 41m
Length of Day
11h 39m
Tomorrow will be 3m 30s shorter.
First Quarter, 52% of the Moon is Illuminated
Today
First Quarter
Oct 8
Full
Oct 15
Last Quarter
Oct 23
New
Oct 30
First Quarter

Today's Extremes

State Highs State Lows

Community

WunderPhotos

Upload Photos

1,758,077 photos uploaded!

WunderBlogs® & News

By Dr. Jeff Masters
Director of Meteorology, Weather Underground
By Kari Strenfel
Meteorologist, Weather Underground
By Christopher C. Burt
Weather Historian, Weather Underground
October 1, 2014
October 1, 2014
October 1, 2014

Nearby

Air Quality

  Air Quality AQ Index Pollutant
Yesterday Good
PM2.5
Current Good
PM2.5
Wednesday Good
PM2.5
Thursday Good
PM2.5
Friday Good
PM2.5

Snow Depth

Station Depth Elevation
Trough 0 in 5300 ft
Park Creek Ridge 0 in 4600 ft
Potato Hill 0 in 4500 ft
Harts Pass 0 in 6500 ft
Surprise Lakes 1 in 4250 ft

Earthquake Activity

City Distance Mag. Time & Date
No recent earthquake activity has been reported nearby.
Minimum magnitude displayed is 2.5.

Coastal Water Temperatures

Place Temperature
Port Townsend, WA 11.1 °C
Friday Harbor, WA 11.1 °C
Port Angeles, WA 10.6 °C

Nearby Weather Stations